»·PEaware :: DAL573 KSJC-KLAX

DAL573 :: KSJC-KLAX

FLIGHT INFORMATION

Flight Status: Arrived
Operator:
Delta Air Lines
More flights by this operator :: More flights under this callsign
Pilot: Brandon G. (13)
Aircraft: BOEING 757-200
(B752)
More flights by this aircraft type
Origin: KSJC Mineta San Jose Intl
United States
Destination: KLAX Los Angeles Intl
United States
More flights between these airports :: More routes between these airports
Route: +TECKY3 EBAYE BURGL IRNMN1
File this flight plan on PilotEdge
Remarks:
Altitude:
(Current/Filed)
31,000ft
Speed:
(Current/Filed)
250kts
Departed: 17-Dec-17 12:00 PM
Arrived: 17-Dec-17 12:53 PM
Distance/Time
Traveled:
267nm/0:52
Distance/Time
To Go:
Arrived

Flight Plot

Page will automatically refresh every two minutes.

Flight plan parsing failed; only flown route is shown


Map Options




Map Legend


Flown Route
Filed Route
Departure Airport
Arrival Airport
Navaid (VOR, NDB)
Fix

Horizontal Profiles

Position Reports

Time Latitude Longitude Heading Altitude Ground
Speed
17-Dec-17 11:25 37.365296 -121.925685 49 50ft 0kts
17-Dec-17 11:26 37.365296 -121.925685 49 50ft 0kts
17-Dec-17 11:27 37.365296 -121.925685 49 50ft 0kts
17-Dec-17 11:28 37.365296 -121.925685 49 50ft 0kts
17-Dec-17 11:29 37.365296 -121.925685 49 50ft 0kts
17-Dec-17 11:30 37.365296 -121.925685 49 50ft 0kts
17-Dec-17 11:31 37.365296 -121.925685 49 50ft 0kts
17-Dec-17 11:32 37.365296 -121.925685 49 50ft 0kts
17-Dec-17 11:33 37.365296 -121.925685 49 50ft 0kts
17-Dec-17 11:34 37.365296 -121.925685 49 50ft 0kts
17-Dec-17 11:35 37.365296 -121.925685 49 50ft 0kts
17-Dec-17 11:36 37.365296 -121.925685 49 50ft 0kts
17-Dec-17 11:37 37.365296 -121.925685 49 50ft 0kts
17-Dec-17 11:38 37.365296 -121.925685 49 50ft 0kts
17-Dec-17 11:39 37.365296 -121.925685 49 50ft 0kts
17-Dec-17 11:40 37.365296 -121.925685 49 50ft 0kts
17-Dec-17 11:41 37.365296 -121.925685 49 50ft 0kts
17-Dec-17 11:42 37.365296 -121.925685 49 50ft 0kts
17-Dec-17 11:43 37.365296 -121.925685 49 50ft 0kts
17-Dec-17 11:44 37.365296 -121.925685 49 50ft 0kts
17-Dec-17 11:45 37.365296 -121.925685 49 50ft 0kts
17-Dec-17 11:46 37.365296 -121.925685 49 50ft 0kts
17-Dec-17 11:47 37.365296 -121.925685 49 50ft 0kts
17-Dec-17 11:48 37.365296 -121.925685 49 50ft 0kts
17-Dec-17 11:49 37.365296 -121.925685 49 50ft 0kts
17-Dec-17 11:50 37.365296 -121.925685 49 50ft 0kts
17-Dec-17 11:51 37.365296 -121.925685 49 50ft 0kts
17-Dec-17 11:52 37.365296 -121.925685 49 50ft 0kts
17-Dec-17 11:53 37.365296 -121.925685 49 50ft 0kts
17-Dec-17 11:54 37.365296 -121.925685 49 50ft 0kts
17-Dec-17 11:55 37.365296 -121.925685 49 50ft 0kts
17-Dec-17 11:56 37.365296 -121.925685 49 50ft 0kts
17-Dec-17 11:57 37.365270 -121.925723 49 50ft 0kts
17-Dec-17 11:58 37.365229 -121.926015 114 50ft 0kts
17-Dec-17 11:59 37.365216 -121.925980 114 50ft 0kts
17-Dec-17 12:00 37.365085 -121.925879 169 51ft 2kts
17-Dec-17 12:01 37.364638 -121.926965 193 52ft 5kts
17-Dec-17 12:02 37.362900 -121.925279 138 55ft 9kts
17-Dec-17 12:03 37.360588 -121.922729 138 58ft 12kts
17-Dec-17 12:04 37.357623 -121.919492 139 62ft 14kts
17-Dec-17 12:05 37.354711 -121.916315 138 67ft 13kts
17-Dec-17 12:06 37.353792 -121.916956 318 67ft 50kts
17-Dec-17 12:07 37.383736 -121.951043 318 2006ft 189kts
17-Dec-17 12:08 37.428388 -121.972135 23 4707ft 247kts
17-Dec-17 12:09 37.422713 -121.885791 150 9795ft 299kts
17-Dec-17 12:10 37.351607 -121.816437 131 12211ft 370kts
17-Dec-17 12:11 37.272452 -121.726132 132 15811ft 399kts
17-Dec-17 12:12 37.202662 -121.647717 133 18568ft 417kts
17-Dec-17 12:13 37.099957 -121.530641 132 22010ft 442kts
17-Dec-17 12:14 37.021585 -121.445678 135 24091ft 461kts
17-Dec-17 12:15 36.925339 -121.342526 135 26322ft 480kts
17-Dec-17 12:16 36.809388 -121.218996 135 29135ft 485kts
17-Dec-17 12:17 36.723784 -121.129343 136 31086ft 484kts
17-Dec-17 12:18 36.604475 -121.006625 136 31061ft 478kts
17-Dec-17 12:19 36.521057 -120.919998 135 31009ft 472kts
17-Dec-17 12:20 36.420562 -120.816100 136 31116ft 472kts
17-Dec-17 12:21 36.319289 -120.713592 136 31098ft 471kts
17-Dec-17 12:22 36.218049 -120.611442 136 31102ft 472kts
17-Dec-17 12:23 36.115868 -120.510724 138 31097ft 473kts
17-Dec-17 12:24 36.014665 -120.409496 136 31107ft 472kts
17-Dec-17 12:25 35.917282 -120.310765 137 31115ft 472kts
17-Dec-17 12:26 35.820474 -120.226565 146 31091ft 476kts
17-Dec-17 12:27 35.708841 -120.141673 145 31092ft 475kts
17-Dec-17 12:28 35.596515 -120.056731 145 31089ft 475kts
17-Dec-17 12:29 35.484883 -119.972839 145 31089ft 476kts
17-Dec-17 12:30 35.375114 -119.890549 145 31083ft 476kts
17-Dec-17 12:31 35.265129 -119.803519 138 31069ft 473kts
17-Dec-17 12:32 35.160543 -119.706541 138 31049ft 473kts
17-Dec-17 12:33 35.057146 -119.609485 138 31090ft 473kts
17-Dec-17 12:34 34.952809 -119.512529 138 30786ft 479kts
17-Dec-17 12:35 34.849323 -119.418672 139 27887ft 475kts
17-Dec-17 12:36 34.752886 -119.332507 140 25187ft 462kts
17-Dec-17 12:37 34.651132 -119.243538 140 22936ft 429kts
17-Dec-17 12:38 34.559660 -119.164585 139 20911ft 386kts
17-Dec-17 12:39 34.472745 -119.087552 139 18941ft 386kts
17-Dec-17 12:40 34.388580 -119.014099 140 17057ft 364kts
17-Dec-17 12:41 34.309668 -118.945357 138 15282ft 343kts
17-Dec-17 12:42 34.237446 -118.878745 139 13787ft 318kts
17-Dec-17 12:43 34.169267 -118.816067 140 12850ft 293kts
17-Dec-17 12:44 34.106182 -118.748197 136 11787ft 304kts
17-Dec-17 12:45 34.044309 -118.680914 133 10209ft 288kts
17-Dec-17 12:46 34.023356 -118.594551 94 8728ft 273kts
17-Dec-17 12:47 34.014661 -118.505387 94 7653ft 263kts
17-Dec-17 12:48 34.016152 -118.425657 76 7000ft 232kts
17-Dec-17 12:49 34.028157 -118.350892 81 5990ft 227kts
17-Dec-17 12:50 34.035400 -118.279781 81 4987ft 227kts
17-Dec-17 12:51 34.043180 -118.205063 82 4001ft 226kts
17-Dec-17 12:52 34.005042 -118.165971 205 3380ft 196kts
17-Dec-17 12:53 33.972466 -118.215825 251 2994ft 192kts
17-Dec-17 12:54 33.965068 -118.277601 264 2225ft 177kts
17-Dec-17 12:55 33.960020 -118.325885 263 1377ft 136kts
17-Dec-17 12:56 33.955426 -118.370429 264 672ft 135kts
17-Dec-17 12:57 33.951012 -118.413025 264 127ft 91kts
17-Dec-17 12:58 33.948064 -118.427235 216 115ft 47kts
17-Dec-17 12:59 33.946437 -118.426227 82 114ft 7kts
17-Dec-17 13:00 33.946994 -118.421372 85 121ft 22kts
17-Dec-17 13:01 33.947920 -118.413203 80 126ft 25kts
17-Dec-17 13:02 33.948756 -118.404162 84 123ft 25kts
17-Dec-17 13:03 33.946685 -118.403155 250 123ft 5kts
17-Dec-17 13:04 33.946619 -118.403378 257 123ft 0kts
17-Dec-17 13:05 33.946619 -118.403378 257 123ft 0kts
17-Dec-17 13:06 33.946619 -118.403378 257 123ft 0kts

Navigation Log

Ident Type
Flight plan parsing failed, navigation log unavailable